Time;durP1;ratioP1;P1;durP2;ratioP2;P2;SDS_P1;SDS_P2;PMS_P1;PMS_P2;Temp;Humidity;BMP_temperature;BMP_pressure;BME280_temperature;BME280_humidity;BME280_pressure;Samples;Min_cycle;Max_cycle;Signal;HPM_P1;HPM_P2
2022/02/14 00:02:03;;;;;;;6.20;1.77;;;11.50;99.90;;;;;;5170202;23;20208;-94
2022/02/14 00:04:27;;;;;;;7.35;2.20;;;11.50;99.90;;;;;;5143528;23;20176;-95
2022/02/14 00:06:45;;;;;;;10.73;1.90;;;11.60;99.90;;;;;;5194563;22;20158;-95
2022/02/14 00:08:55;;;;;;;6.80;2.00;;;11.60;99.90;;;;;;5145003;23;20158;-94
2022/02/14 00:11:11;;;;;;;7.70;2.40;;;11.70;99.90;;;;;;5170800;22;20143;-96
2022/02/14 00:13:42;;;;;;;6.28;1.77;;;11.60;99.90;;;;;;5147219;23;20156;-94
2022/02/14 00:15:43;;;;;;;10.23;1.92;;;11.50;99.90;;;;;;5162583;23;20155;-93
2022/02/14 00:18:13;;;;;;;6.38;1.90;;;11.50;99.90;;;;;;5142255;23;20225;-94
2022/02/14 00:20:19;;;;;;;11.98;2.50;;;11.50;99.90;;;;;;5172596;23;20154;-94
2022/02/14 00:22:24;;;;;;;7.40;1.98;;;11.50;99.90;;;;;;5172113;23;20192;-93
2022/02/14 00:24:55;;;;;;;11.00;2.13;;;11.50;99.90;;;;;;5194624;22;20539;-95
2022/02/14 00:27:08;;;;;;;6.38;1.88;;;11.50;99.90;;;;;;5172597;23;20204;-94
2022/02/14 00:29:31;;;;;;;7.75;1.65;;;11.40;99.90;;;;;;5171504;23;20158;-95
2022/02/14 00:31:55;;;;;;;8.77;2.00;;;11.40;99.90;;;;;;5171950;23;20139;-95
2022/02/14 00:33:59;;;;;;;7.82;1.92;;;11.50;99.90;;;;;;5145249;23;20175;-94
2022/02/14 00:36:07;;;;;;;7.82;1.73;;;11.60;99.90;;;;;;5146503;23;20602;-94
2022/02/14 00:38:38;;;;;;;10.00;1.65;;;11.70;99.90;;;;;;5149098;23;20648;-96
2022/02/14 00:40:47;;;;;;;8.13;2.35;;;11.60;99.90;;;;;;5170774;23;20238;-96
2022/02/14 00:42:50;;;;;;;6.00;1.50;;;11.50;99.90;;;;;;5147303;23;20147;-94
2022/02/14 00:45:12;;;;;;;5.22;1.75;;;11.40;99.90;;;;;;5170933;22;20510;-94
2022/02/14 00:50:08;;;;;;;5.78;1.90;;;11.50;99.90;;;;;;5174050;23;20193;-94
2022/02/14 00:52:15;;;;;;;8.77;1.63;;;11.50;99.90;;;;;;5138428;23;20159;-96
2022/02/14 00:57:40;;;;;;;5.43;1.55;;;11.50;99.90;;;;;;5176551;23;20229;-94
2022/02/14 00:59:54;;;;;;;6.53;1.90;;;11.50;99.90;;;;;;5145585;23;20308;-94
2022/02/14 01:02:12;;;;;;;4.57;1.20;;;11.50;99.90;;;;;;5172944;22;20154;-93
2022/02/14 01:04:18;;;;;;;8.82;2.00;;;11.50;99.90;;;;;;5172899;23;20193;-94
2022/02/14 01:06:31;;;;;;;8.70;1.52;;;11.60;99.90;;;;;;5199143;22;20157;-94
2022/02/14 01:08:59;;;;;;;4.93;1.40;;;11.60;99.90;;;;;;5147234;23;20171;-94
2022/02/14 01:11:03;;;;;;;6.72;1.73;;;11.60;99.90;;;;;;5148132;23;20155;-95
2022/02/14 01:13:03;;;;;;;9.48;1.60;;;11.60;99.90;;;;;;5172546;23;20147;-95
2022/02/14 01:15:06;;;;;;;6.65;1.50;;;11.60;99.90;;;;;;5195172;22;20180;-92
2022/02/14 01:17:15;;;;;;;9.55;1.48;;;11.50;99.90;;;;;;5146341;23;20215;-95
2022/02/14 01:19:20;;;;;;;10.25;2.10;;;11.60;99.90;;;;;;5170201;23;20194;-94
2022/02/14 01:21:44;;;;;;;;;;;;;;;;;;;;;
2022/02/14 01:23:57;;;;;;;7.88;1.40;;;11.40;99.90;;;;;;5173377;22;20275;-95
2022/02/14 01:26:05;;;;;;;6.65;1.30;;;11.40;99.90;;;;;;5145761;23;20202;-95
2022/02/14 01:28:17;;;;;;;8.65;1.75;;;11.40;99.90;;;;;;5146548;23;20526;-95
2022/02/14 01:30:36;;;;;;;6.20;1.98;;;11.40;99.90;;;;;;5169826;23;20163;-94
2022/02/14 01:32:42;;;;;;;3.60;1.63;;;11.30;99.90;;;;;;5146486;23;20463;-95
2022/02/14 01:34:46;;;;;;;4.60;1.45;;;11.30;99.90;;;;;;5170444;23;20181;-95
2022/02/14 01:36:49;;;;;;;6.63;1.20;;;11.40;99.90;;;;;;5196181;22;20220;-95
2022/02/14 01:38:53;;;;;;;9.00;1.70;;;11.30;99.90;;;;;;5143976;23;20183;-94
2022/02/14 01:40:53;;;;;;;9.00;0.90;;;11.40;99.90;;;;;;5145416;23;20250;-94
2022/02/14 01:42:54;;;;;;;4.38;1.33;;;11.30;99.90;;;;;;5169688;23;20147;-93
2022/02/14 01:45:01;;;;;;;6.55;1.27;;;11.30;99.90;;;;;;5143537;23;20233;-93
2022/02/14 01:47:14;;;;;;;4.93;1.63;;;11.40;99.90;;;;;;5143722;23;20148;-94
2022/02/14 01:49:14;;;;;;;9.05;1.70;;;11.30;99.90;;;;;;5143997;23;20171;-94
2022/02/14 01:51:28;;;;;;;2.80;1.13;;;11.40;99.90;;;;;;5169255;23;20149;-95
2022/02/14 01:53:37;;;;;;;6.40;1.20;;;11.30;99.90;;;;;;5146821;23;20177;-95
2022/02/14 01:55:41;;;;;;;6.93;1.33;;;11.30;99.90;;;;;;5167449;23;20245;-94
2022/02/14 01:57:51;;;;;;;5.95;1.50;;;11.30;99.90;;;;;;5169686;23;20647;-93
2022/02/14 01:59:52;;;;;;;7.97;1.65;;;11.30;99.90;;;;;;5170113;23;20170;-92
2022/02/14 02:01:53;;;;;;;3.75;1.35;;;11.40;99.90;;;;;;5144382;23;20617;-94
2022/02/14 02:03:54;;;;;;;8.65;1.40;;;11.50;99.90;;;;;;5194714;22;20224;-95
2022/02/14 02:05:56;;;;;;;5.50;1.27;;;11.50;99.90;;;;;;5144885;23;20144;-95
2022/02/14 02:08:01;;;;;;;3.92;1.17;;;11.60;99.90;;;;;;5169213;23;20147;-95
2022/02/14 02:10:05;;;;;;;8.60;1.75;;;11.40;99.90;;;;;;5169207;23;20147;-95
2022/02/14 02:12:25;;;;;;;5.18;1.48;;;11.40;99.90;;;;;;5144414;23;20186;-94
2022/02/14 02:14:29;;;;;;;8.27;1.52;;;11.40;99.90;;;;;;5122990;23;20183;-95
2022/02/14 02:16:29;;;;;;;8.27;1.35;;;11.30;99.90;;;;;;5145005;23;20166;-94
2022/02/14 02:18:30;;;;;;;5.13;1.25;;;11.30;99.90;;;;;;5195789;22;20552;-93
2022/02/14 02:20:34;;;;;;;4.45;1.50;;;11.30;99.90;;;;;;5168980;23;20185;-93
2022/02/14 02:22:36;;;;;;;7.20;1.40;;;11.30;99.90;;;;;;5169675;22;20147;-94
2022/02/14 02:24:49;;;;;;;7.55;1.67;;;11.40;99.90;;;;;;5168302;22;20513;-94
2022/02/14 02:27:06;;;;;;;4.07;1.00;;;11.50;99.90;;;;;;5145667;23;20165;-94
2022/02/14 02:29:09;;;;;;;6.22;1.60;;;11.40;99.90;;;;;;5143734;23;20602;-95
2022/02/14 02:31:13;;;;;;;6.15;1.20;;;11.40;99.90;;;;;;5169615;23;20684;-94
2022/02/14 02:33:14;;;;;;;5.50;1.40;;;11.40;99.90;;;;;;5169947;23;20151;-94
2022/02/14 02:35:15;;;;;;;6.20;1.40;;;11.40;99.90;;;;;;5168266;22;20214;-94
2022/02/14 02:37:21;;;;;;;9.07;1.83;;;11.40;99.90;;;;;;5143629;23;20243;-94
2022/02/14 02:39:29;;;;;;;7.82;1.25;;;11.50;99.90;;;;;;5144341;23;20657;-95
2022/02/14 02:41:32;;;;;;;5.43;1.20;;;11.50;99.90;;;;;;5169263;23;20589;-94
2022/02/14 02:43:33;;;;;;;7.30;1.90;;;11.40;99.90;;;;;;5143778;23;20151;-93
2022/02/14 02:45:34;;;;;;;14.23;1.15;;;11.50;99.90;;;;;;5193557;22;20229;-94
2022/02/14 02:47:40;;;;;;;8.50;1.70;;;11.50;99.90;;;;;;5143749;23;20148;-95
2022/02/14 02:49:45;;;;;;;5.15;1.40;;;11.50;99.90;;;;;;5168385;23;20193;-95
2022/02/14 02:51:54;;;;;;;4.75;1.27;;;11.50;99.90;;;;;;5168581;23;20143;-95
2022/02/14 02:53:59;;;;;;;4.53;1.33;;;11.40;99.90;;;;;;5168237;22;20167;-93
2022/02/14 02:56:00;;;;;;;9.30;1.75;;;11.40;99.90;;;;;;5168829;23;20161;-93
2022/02/14 02:58:01;;;;;;;5.75;1.10;;;11.50;99.90;;;;;;5168578;23;20158;-93
2022/02/14 03:00:03;;;;;;;5.93;1.08;;;11.50;99.90;;;;;;5168495;23;20254;-94
2022/02/14 03:02:07;;;;;;;3.90;1.13;;;11.40;99.90;;;;;;5168643;23;20217;-95
2022/02/14 03:04:12;;;;;;;8.73;1.13;;;11.40;99.90;;;;;;5143314;23;20644;-95
2022/02/14 03:06:12;;;;;;;5.18;1.30;;;11.30;99.90;;;;;;5168321;23;20154;-94
2022/02/14 03:08:13;;;;;;;3.28;1.02;;;11.30;99.90;;;;;;5143383;23;20186;-94
2022/02/14 03:10:14;;;;;;;4.53;1.02;;;11.30;99.90;;;;;;5168328;23;20289;-93
2022/02/14 03:12:14;;;;;;;6.85;1.15;;;11.30;99.90;;;;;;5168228;23;20143;-94
2022/02/14 03:14:18;;;;;;;7.93;1.50;;;11.40;99.90;;;;;;5168917;22;20593;-93
2022/02/14 03:16:27;;;;;;;2.30;0.80;;;11.40;99.90;;;;;;5170318;23;20186;-94
2022/02/14 03:18:30;;;;;;;4.82;0.90;;;11.30;99.90;;;;;;5143380;23;20185;-95
2022/02/14 03:20:31;;;;;;;10.02;1.60;;;11.30;99.90;;;;;;5119800;23;20164;-94
2022/02/14 03:22:32;;;;;;;5.82;1.23;;;11.40;99.90;;;;;;5198076;22;20150;-93
2022/02/14 03:24:33;;;;;;;5.50;1.23;;;11.40;99.90;;;;;;5149359;23;20175;-93
2022/02/14 03:26:36;;;;;;;4.38;0.90;;;11.40;99.90;;;;;;5171992;23;20154;-93
2022/02/14 03:28:36;;;;;;;4.45;1.40;;;11.30;99.90;;;;;;5143745;23;20148;-96
2022/02/14 03:30:37;;;;;;;3.55;1.23;;;11.30;99.90;;;;;;5144291;23;20640;-95
2022/02/14 03:32:38;;;;;;;3.50;1.38;;;11.40;99.90;;;;;;5168404;23;20153;-93
2022/02/14 03:34:39;;;;;;;5.13;1.15;;;11.40;99.90;;;;;;5143923;23;20195;-93
2022/02/14 03:36:41;;;;;;;3.72;1.10;;;11.30;99.90;;;;;;5168296;23;20150;-94
2022/02/14 03:38:44;;;;;;;2.90;1.00;;;11.30;99.90;;;;;;5168872;23;20187;-95
2022/02/14 03:40:57;;;;;;;6.47;1.63;;;11.20;99.90;;;;;;5168159;23;20159;-95
2022/02/14 03:43:18;;;;;;;5.35;1.42;;;11.40;99.90;;;;;;5169616;23;20146;-94
2022/02/14 03:45:19;;;;;;;5.95;1.83;;;11.50;99.90;;;;;;5168146;22;20194;-93
2022/02/14 03:47:21;;;;;;;8.02;1.63;;;11.50;99.90;;;;;;5144983;23;20151;-95
2022/02/14 03:49:21;;;;;;;4.63;1.60;;;11.40;99.90;;;;;;5171546;23;20209;-93
2022/02/14 03:51:27;;;;;;;4.50;1.83;;;11.20;99.90;;;;;;5146591;23;20151;-94
2022/02/14 03:53:31;;;;;;;5.22;1.75;;;11.30;99.90;;;;;;5171075;23;20200;-95
2022/02/14 03:55:32;;;;;;;6.77;1.70;;;11.10;99.90;;;;;;5197003;22;20141;-95
2022/02/14 03:57:33;;;;;;;8.23;1.85;;;11.10;99.90;;;;;;5170023;23;20154;-94
2022/02/14 03:59:35;;;;;;;11.68;2.28;;;11.10;99.90;;;;;;5144355;23;20526;-95
2022/02/14 04:01:40;;;;;;;5.03;2.28;;;11.00;99.90;;;;;;5170715;23;20147;-96
2022/02/14 04:03:41;;;;;;;3.50;1.33;;;11.10;99.90;;;;;;5144776;23;20155;-93
2022/02/14 04:05:42;;;;;;;6.18;2.22;;;11.10;99.90;;;;;;5170498;23;20233;-95
2022/02/14 04:07:49;;;;;;;8.68;1.77;;;11.00;99.90;;;;;;5144880;23;20161;-94
2022/02/14 04:09:52;;;;;;;6.80;2.65;;;10.90;99.90;;;;;;5169503;23;20151;-94
2022/02/14 04:12:04;;;;;;;3.72;2.10;;;11.00;99.90;;;;;;5148042;23;20154;-94
2022/02/14 04:14:07;;;;;;;7.80;2.78;;;11.00;99.90;;;;;;5145345;23;20167;-94
2022/02/14 04:16:08;;;;;;;6.13;2.73;;;10.90;99.90;;;;;;5170236;23;20154;-95
2022/02/14 04:18:09;;;;;;;10.02;3.22;;;10.90;99.90;;;;;;5169949;23;20154;-95
2022/02/14 04:20:30;;;;;;;8.90;2.97;;;10.90;99.90;;;;;;5145757;23;20167;-94
2022/02/14 04:22:37;;;;;;;10.68;2.67;;;11.00;99.90;;;;;;5170174;23;20222;-96
2022/02/14 04:24:37;;;;;;;3.65;1.42;;;11.00;99.90;;;;;;5144651;23;20171;-94
2022/02/14 04:26:38;;;;;;;8.90;2.88;;;11.00;99.90;;;;;;5170235;22;20486;-94
2022/02/14 04:28:40;;;;;;;7.55;2.53;;;11.10;99.90;;;;;;5146353;23;20154;-94
2022/02/14 04:30:41;;;;;;;3.78;2.05;;;11.00;99.90;;;;;;5170030;23;20155;-94
2022/02/14 04:32:45;;;;;;;3.25;1.58;;;10.90;99.90;;;;;;5170298;22;20147;-95
2022/02/14 04:34:45;;;;;;;8.75;2.92;;;10.80;99.90;;;;;;5146171;23;20171;-94
2022/02/14 04:36:54;;;;;;;8.27;2.65;;;10.90;99.90;;;;;;5195830;22;20649;-94
2022/02/14 04:39:01;;;;;;;6.18;2.00;;;10.90;99.90;;;;;;5145864;23;20186;-93
2022/02/14 04:41:11;;;;;;;4.68;2.00;;;10.90;99.90;;;;;;5171126;22;20151;-94
2022/02/14 04:43:12;;;;;;;7.60;2.30;;;10.90;99.90;;;;;;5172029;23;20157;-94
2022/02/14 04:45:13;;;;;;;8.10;1.70;;;10.80;99.90;;;;;;5145697;23;20171;-95
2022/02/14 04:47:14;;;;;;;11.15;2.28;;;10.90;99.90;;;;;;5145514;23;20152;-94
2022/02/14 04:49:15;;;;;;;4.75;1.80;;;10.90;99.90;;;;;;5144563;23;20150;-93
2022/02/14 04:51:19;;;;;;;3.97;1.80;;;11.00;99.90;;;;;;5171052;23;20175;-96
2022/02/14 04:53:40;;;;;;;5.70;1.60;;;11.10;99.90;;;;;;5147164;23;20190;-94
2022/02/14 04:55:44;;;;;;;6.72;2.20;;;11.00;99.90;;;;;;5143908;23;20201;-95
2022/02/14 04:57:55;;;;;;;2.80;1.27;;;11.00;99.90;;;;;;5147637;23;20151;-94
2022/02/14 05:00:07;;;;;;;8.77;1.90;;;10.90;99.90;;;;;;5145629;23;20182;-95
2022/02/14 05:02:15;;;;;;;5.25;1.33;;;10.90;99.90;;;;;;5143783;23;20179;-94
2022/02/14 05:04:17;;;;;;;6.18;2.17;;;10.90;99.90;;;;;;5170195;22;20167;-93
2022/02/14 05:06:18;;;;;;;5.43;1.98;;;10.90;99.90;;;;;;5146246;23;20202;-94
2022/02/14 05:08:21;;;;;;;3.55;1.65;;;10.90;99.90;;;;;;5170866;23;20147;-94
2022/02/14 05:10:25;;;;;;;5.53;2.00;;;10.80;99.90;;;;;;5144043;23;20630;-96
2022/02/14 05:12:30;;;;;;;8.75;2.70;;;10.90;99.90;;;;;;5171138;23;20213;-94
2022/02/14 05:14:32;;;;;;;4.65;1.98;;;11.00;99.90;;;;;;5194672;22;20619;-95
2022/02/14 05:16:35;;;;;;;10.50;2.00;;;11.00;99.90;;;;;;5145482;23;20163;-93
2022/02/14 05:18:36;;;;;;;6.57;2.08;;;11.10;99.90;;;;;;5169449;23;20189;-93
2022/02/14 05:20:38;;;;;;;9.38;2.70;;;11.10;99.90;;;;;;5144326;23;20152;-94
2022/02/14 05:22:39;;;;;;;4.25;2.10;;;11.10;99.90;;;;;;5195135;22;20472;-93
2022/02/14 05:24:39;;;;;;;11.63;2.72;;;11.20;99.90;;;;;;5194134;22;20769;-94
2022/02/14 05:26:41;;;;;;;7.28;2.38;;;11.20;99.90;;;;;;5144613;23;20508;-94
2022/02/14 05:28:42;;;;;;;6.72;3.03;;;11.20;99.90;;;;;;5144431;23;20226;-94
2022/02/14 05:30:43;;;;;;;9.25;2.72;;;11.20;99.90;;;;;;5169954;23;20158;-94
2022/02/14 05:32:44;;;;;;;8.00;2.40;;;11.20;99.90;;;;;;5143820;23;20164;-94
2022/02/14 05:34:47;;;;;;;5.75;2.17;;;11.30;99.90;;;;;;5146017;23;20167;-94
2022/02/14 05:36:48;;;;;;;6.97;2.65;;;11.30;99.90;;;;;;5171023;23;20533;-94
2022/02/14 05:38:52;;;;;;;11.23;2.85;;;11.20;99.90;;;;;;5144217;23;20303;-95
2022/02/14 05:40:58;;;;;;;7.20;2.80;;;11.30;99.90;;;;;;5170154;22;20150;-94
2022/02/14 05:43:02;;;;;;;7.47;3.13;;;11.30;99.90;;;;;;5144225;23;20162;-94
2022/02/14 05:45:03;;;;;;;13.70;3.75;;;11.30;99.90;;;;;;5170373;22;20167;-94
2022/02/14 05:47:04;;;;;;;8.00;2.92;;;11.30;99.90;;;;;;5144358;23;20190;-93
2022/02/14 05:49:05;;;;;;;8.20;2.67;;;11.40;99.90;;;;;;5143912;23;20533;-94
2022/02/14 05:51:09;;;;;;;9.40;2.78;;;11.20;99.90;;;;;;5169537;23;20150;-94
2022/02/14 05:53:12;;;;;;;9.65;2.97;;;11.20;99.90;;;;;;5146376;23;20152;-95
2022/02/14 05:55:13;;;;;;;8.93;3.15;;;11.10;99.90;;;;;;5143981;22;20178;-93
2022/02/14 05:57:18;;;;;;;9.85;3.08;;;10.90;99.90;;;;;;5170363;23;20623;-96
2022/02/14 05:59:27;;;;;;;7.78;2.22;;;11.00;99.90;;;;;;5144172;23;20214;-95
2022/02/14 06:01:39;;;;;;;5.28;1.90;;;10.90;99.90;;;;;;5168829;23;20233;-94
2022/02/14 06:03:40;;;;;;;9.00;1.63;;;10.90;99.90;;;;;;5145472;23;20299;-95
2022/02/14 06:05:42;;;;;;;4.72;1.80;;;10.80;99.90;;;;;;5168806;23;20147;-94
2022/02/14 06:07:51;;;;;;;6.60;2.28;;;10.60;99.90;;;;;;5144277;23;20158;-96
2022/02/14 06:10:00;;;;;;;3.67;1.97;;;10.60;99.90;;;;;;5148266;23;20455;-94
2022/02/14 06:12:15;;;;;;;6.90;2.10;;;10.50;99.90;;;;;;5150207;23;20155;-94
2022/02/14 06:21:00;;;;;;;1.33;0.50;;;10.50;99.90;;;;;;5080312;23;20260;-95
2022/02/14 06:23:29;;;;;;;;;;;;;;;;;;;;;
2022/02/14 06:26:08;;;;;;;0.60;0.30;;;10.10;99.90;;;;;;5079651;23;20679;-96
2022/02/14 06:28:55;;;;;;;1.80;0.50;;;9.90;99.90;;;;;;5133970;23;20158;-96
2022/02/14 06:31:45;;;;;;;0.70;0.40;;;10.00;99.90;;;;;;5202633;22;20202;-96
2022/02/14 06:41:00;;;;;;;;;;;;;;;;;;;;;
2022/02/14 06:48:56;;;;;;;2.05;0.60;;;10.20;99.90;;;;;;5203817;22;20177;-93
2022/02/14 06:51:05;;;;;;;2.87;0.73;;;10.40;99.90;;;;;;5201808;22;20157;-95
2022/02/14 06:53:56;;;;;;;1.77;0.70;;;10.30;99.90;;;;;;5192176;22;20169;-95
2022/02/14 06:59:34;;;;;;;3.13;0.90;;;10.10;99.90;;;;;;5072412;23;20193;-96
2022/02/14 07:02:42;;;;;;;1.23;0.70;;;9.90;99.90;;;;;;5100829;23;20228;-94
2022/02/14 07:08:34;;;;;;;1.52;0.90;;;9.70;99.90;;;;;;5174593;23;20155;-94
2022/02/14 07:12:06;;;;;;;6.40;1.53;;;9.90;99.90;;;;;;5175022;23;20208;-94
2022/02/14 07:14:34;;;;;;;5.97;1.92;;;10.00;99.90;;;;;;5049389;23;20182;-93
2022/02/14 07:16:50;;;;;;;;;;;;;;;;;;;;;
2022/02/14 07:22:37;;;;;;;3.10;1.63;;;9.90;99.90;;;;;;5154269;22;20245;-95
2022/02/14 07:31:04;;;;;;;5.35;2.45;;;10.10;99.90;;;;;;5028270;23;20258;-94
2022/02/14 07:33:19;;;;;;;5.40;2.07;;;10.20;99.90;;;;;;5145079;22;20160;-94
2022/02/14 07:35:48;;;;;;;3.25;2.42;;;10.20;99.90;;;;;;5066022;23;20173;-94
2022/02/14 07:43:26;;;;;;;;;;;;;;;;;;;;;
2022/02/14 07:49:10;;;;;;;2.87;0.90;;;9.70;99.90;;;;;;5058731;23;20151;-96
2022/02/14 07:53:54;;;;;;;1.97;1.20;;;9.70;99.90;;;;;;5158662;23;20416;-96
2022/02/14 08:14:36;;;;;;;3.57;0.63;;;9.90;99.90;;;;;;5122788;23;20179;-94
2022/02/14 08:16:57;;;;;;;1.83;0.50;;;9.70;99.90;;;;;;5123288;23;20155;-95
2022/02/14 08:20:30;;;;;;;2.83;0.50;;;9.70;99.90;;;;;;5124392;23;20202;-96
2022/02/14 08:22:43;;;;;;;;;;;;;;;;;;;;;
2022/02/14 08:25:26;;;;;;;4.73;0.70;;;9.40;99.90;;;;;;5098788;23;20179;-94
2022/02/14 08:28:02;;;;;;;1.67;0.47;;;9.40;99.90;;;;;;5121846;23;20152;-95
2022/02/14 08:30:40;;;;;;;2.93;0.60;;;9.60;99.90;;;;;;5052132;23;20158;-95
2022/02/14 08:36:14;;;;;;;3.00;0.57;;;9.80;99.90;;;;;;5152131;22;20182;-94
2022/02/14 08:39:33;;;;;;;;;;;;;;;;;;;;;
2022/02/14 08:47:50;;;;;;;;;;;;;;;;;;;;;
2022/02/14 08:55:30;;;;;;;1.92;0.40;;;10.20;99.90;;;;;;5165222;22;20193;-96
2022/02/14 09:39:30;;;;;;;3.10;1.00;;;11.60;99.90;;;;;;5052562;23;20217;-94
2022/02/14 09:42:35;;;;;;;5.80;1.10;;;11.80;99.90;;;;;;5005933;23;20211;-96
2022/02/14 09:56:55;;;;;;;8.45;1.30;;;11.30;99.90;;;;;;5106935;23;20196;-95
2022/02/14 10:03:17;;;;;;;;;;;;;;;;;;;;;
2022/02/14 10:10:11;;;;;;;;;;;;;;;;;;;;;
2022/02/14 10:19:20;;;;;;;;;;;;;;;;;;;;;
2022/02/14 10:30:16;;;;;;;8.25;1.02;;;11.90;99.90;;;;;;5141232;23;20202;-94
2022/02/14 10:47:38;;;;;;;7.07;1.00;;;11.70;99.90;;;;;;4825178;24;20169;-95
2022/02/14 10:50:55;;;;;;;;;;;;;;;;;;;;;
2022/02/14 10:56:18;;;;;;;;;;;;;;;;;;;;;
2022/02/14 11:28:43;;;;;;;;;;;;;;;;;;;;;
2022/02/14 11:38:18;;;;;;;10.32;1.23;;;11.70;99.90;;;;;;4891611;24;20793;-95
2022/02/14 11:40:52;;;;;;;11.23;1.20;;;11.40;99.90;;;;;;4900667;24;20237;-96
2022/02/14 11:46:56;;;;;;;9.57;1.65;;;11.00;99.90;;;;;;5158790;23;20198;-93
2022/02/14 13:08:05;;;;;;;6.32;1.40;;;11.30;99.90;;;;;;5129614;23;20228;-96
2022/02/14 13:14:42;;;;;;;;;;;;;;;;;;;;;
2022/02/14 13:17:21;;;;;;;12.52;1.60;;;12.20;99.90;;;;;;5049749;23;20162;-95
2022/02/14 13:19:45;;;;;;;10.43;1.73;;;12.40;99.90;;;;;;5050299;23;20193;-95
2022/02/14 13:21:45;;;;;;;9.43;1.85;;;12.80;99.90;;;;;;5083011;23;20328;-95
2022/02/14 13:30:44;;;;;;;;;;;;;;;;;;;;;
2022/02/14 13:37:14;;;;;;;6.40;1.00;;;12.60;99.90;;;;;;5153303;23;20644;-94
2022/02/14 13:50:27;;;;;;;9.82;1.50;;;11.90;99.90;;;;;;5157721;22;20215;-95
2022/02/14 13:53:14;;;;;;;12.13;1.27;;;12.20;99.90;;;;;;5130656;23;20164;-96
2022/02/14 14:02:12;;;;;;;;;;;;;;;;;;;;;
2022/02/14 14:05:38;;;;;;;7.78;1.08;;;11.50;99.90;;;;;;5108816;23;20238;-95
2022/02/14 14:11:43;;;;;;;6.20;1.13;;;11.30;99.90;;;;;;4921828;24;20173;-95
2022/02/14 14:14:55;;;;;;;8.60;1.10;;;11.60;99.90;;;;;;4896769;24;20219;-94
2022/02/14 14:18:06;;;;;;;12.57;1.42;;;11.60;99.90;;;;;;4912586;23;20162;-94
2022/02/14 14:21:03;;;;;;;6.38;0.68;;;11.30;99.90;;;;;;4973160;23;20256;-95
2022/02/14 14:27:06;;;;;;;5.78;0.80;;;11.00;99.90;;;;;;5096049;23;20157;-95
2022/02/14 14:29:10;;;;;;;6.57;1.10;;;10.90;99.90;;;;;;5046316;23;20218;-95
2022/02/14 14:31:12;;;;;;;5.70;0.90;;;11.00;99.90;;;;;;5081399;23;20152;-96
2022/02/14 14:33:21;;;;;;;6.75;0.90;;;11.10;99.90;;;;;;5119261;23;20159;-94
2022/02/14 14:35:29;;;;;;;10.57;0.85;;;11.20;99.90;;;;;;5119587;23;20168;-96
2022/02/14 14:37:53;;;;;;;9.35;1.00;;;11.10;99.90;;;;;;5118542;23;20156;-95
2022/02/14 14:39:54;;;;;;;7.72;1.50;;;11.30;99.90;;;;;;5119271;23;20199;-94
2022/02/14 14:44:47;;;;;;;6.72;1.15;;;11.60;99.90;;;;;;5158773;22;20202;-94
2022/02/14 14:47:12;;;;;;;8.88;1.10;;;11.60;99.90;;;;;;5169650;23;20150;-95
2022/02/14 14:49:15;;;;;;;9.50;1.05;;;11.50;99.90;;;;;;5169470;23;20161;-95
2022/02/14 14:51:19;;;;;;;7.50;1.25;;;11.60;99.90;;;;;;5169100;23;20489;-95
2022/02/14 14:53:20;;;;;;;8.43;1.30;;;11.70;99.90;;;;;;5168055;23;20635;-95
2022/02/14 14:55:30;;;;;;;5.35;1.10;;;11.80;99.90;;;;;;5170029;22;20166;-95
2022/02/14 14:57:34;;;;;;;8.73;1.55;;;11.90;99.90;;;;;;5145090;23;20621;-95
2022/02/14 14:59:38;;;;;;;10.02;1.38;;;11.90;99.90;;;;;;5167201;23;20187;-95
2022/02/14 15:01:49;;;;;;;7.20;1.20;;;11.90;99.90;;;;;;5143924;23;20144;-94
2022/02/14 15:03:50;;;;;;;6.95;0.90;;;11.90;99.90;;;;;;5143860;23;20167;-93
2022/02/14 15:05:51;;;;;;;5.88;0.95;;;11.90;99.90;;;;;;5169881;23;20174;-94
2022/02/14 15:07:52;;;;;;;5.45;0.88;;;11.70;99.90;;;;;;5145085;23;20486;-95
2022/02/14 15:09:56;;;;;;;5.78;0.73;;;11.40;99.90;;;;;;5198380;22;20153;-95
2022/02/14 15:12:01;;;;;;;6.88;0.80;;;11.10;99.90;;;;;;5145543;23;21008;-94
2022/02/14 15:14:05;;;;;;;4.90;1.05;;;11.00;99.90;;;;;;5167863;22;20553;-94
2022/02/14 15:16:06;;;;;;;5.82;0.90;;;10.90;99.90;;;;;;5145673;23;20602;-95
2022/02/14 15:18:14;;;;;;;5.70;0.85;;;11.20;99.90;;;;;;5168859;23;20204;-95
2022/02/14 15:20:15;;;;;;;7.53;1.10;;;11.50;99.90;;;;;;5143875;23;20648;-93
2022/02/14 15:22:21;;;;;;;7.50;1.33;;;11.70;99.90;;;;;;5142185;23;20152;-94
2022/02/14 15:24:27;;;;;;;8.60;1.00;;;11.90;99.90;;;;;;5168410;22;20174;-94
2022/02/14 15:26:28;;;;;;;10.93;1.15;;;12.10;99.90;;;;;;5168122;23;20147;-96
2022/02/14 15:28:30;;;;;;;15.43;1.98;;;11.90;99.90;;;;;;5143687;23;20478;-95
2022/02/14 15:30:37;;;;;;;16.55;1.95;;;11.80;99.90;;;;;;5194059;22;20145;-95
2022/02/14 15:32:38;;;;;;;5.60;1.30;;;11.70;99.90;;;;;;5145234;23;20207;-94
2022/02/14 15:34:43;;;;;;;3.83;0.93;;;11.70;99.90;;;;;;5170325;22;20166;-95
2022/02/14 15:36:52;;;;;;;8.80;1.00;;;11.50;99.90;;;;;;5170260;22;20157;-95
2022/02/14 15:38:56;;;;;;;13.45;1.63;;;11.30;99.90;;;;;;5169990;23;20178;-92
2022/02/14 15:40:57;;;;;;;10.85;1.58;;;11.30;99.90;;;;;;5151331;23;20155;-95
2022/02/14 15:42:58;;;;;;;10.90;1.15;;;11.30;99.90;;;;;;5182198;23;20210;-94
2022/02/14 15:45:07;;;;;;;11.50;1.48;;;11.30;99.90;;;;;;5156613;23;20186;-94
2022/02/14 15:47:10;;;;;;;13.45;1.35;;;11.60;99.90;;;;;;5174672;23;20206;-94
2022/02/14 15:49:11;;;;;;;5.22;1.20;;;11.50;99.90;;;;;;5143685;23;20582;-94
2022/02/14 15:51:15;;;;;;;4.82;1.10;;;11.40;99.90;;;;;;5144183;23;20215;-94
2022/02/14 15:53:16;;;;;;;7.13;1.27;;;11.20;99.90;;;;;;5144142;23;20556;-95
2022/02/14 15:55:17;;;;;;;11.23;1.58;;;11.30;99.90;;;;;;5168829;23;20249;-95
2022/02/14 15:57:18;;;;;;;8.50;1.40;;;11.30;99.90;;;;;;5143193;23;20151;-96
2022/02/14 15:59:24;;;;;;;8.27;1.45;;;11.30;99.90;;;;;;5168550;23;20580;-96
2022/02/14 16:01:32;;;;;;;7.85;1.00;;;11.30;99.90;;;;;;5169141;23;20220;-95
2022/02/14 16:03:51;;;;;;;13.75;1.88;;;11.40;99.90;;;;;;5168037;22;20153;-95
2022/02/14 16:05:57;;;;;;;11.55;1.40;;;11.50;99.90;;;;;;5144102;23;20162;-96
2022/02/14 16:07:58;;;;;;;8.38;1.20;;;11.50;99.90;;;;;;5168691;23;20147;-94
2022/02/14 16:10:08;;;;;;;9.10;1.52;;;11.40;99.90;;;;;;5169288;23;20158;-95
2022/02/14 16:12:12;;;;;;;8.90;1.35;;;11.40;99.90;;;;;;5168315;23;20197;-94
2022/02/14 16:14:21;;;;;;;15.07;1.20;;;11.50;99.90;;;;;;5143047;23;20181;-95
2022/02/14 16:16:28;;;;;;;9.10;1.52;;;11.50;99.90;;;;;;5168410;23;20150;-94
2022/02/14 16:18:28;;;;;;;10.68;1.50;;;11.40;99.90;;;;;;5145067;23;20147;-95
2022/02/14 16:20:32;;;;;;;15.63;1.42;;;11.50;99.90;;;;;;5168479;23;20158;-94
2022/02/14 16:22:33;;;;;;;10.25;1.33;;;11.50;99.90;;;;;;5143294;23;20144;-95
2022/02/14 16:24:34;;;;;;;7.40;1.27;;;11.40;99.90;;;;;;5144061;23;20561;-94
2022/02/14 16:26:40;;;;;;;5.72;1.13;;;11.30;99.90;;;;;;5168365;23;20151;-94
2022/02/14 16:28:48;;;;;;;12.48;1.30;;;11.20;99.90;;;;;;5118551;23;20156;-96
2022/02/14 16:30:49;;;;;;;10.35;1.20;;;11.20;99.90;;;;;;5169242;23;20177;-96
2022/02/14 16:32:50;;;;;;;11.05;1.38;;;11.10;99.90;;;;;;5168210;23;20163;-96
2022/02/14 16:34:56;;;;;;;8.48;1.33;;;11.10;99.90;;;;;;5168136;22;20167;-95
2022/02/14 16:36:59;;;;;;;7.60;1.35;;;11.00;99.90;;;;;;5168887;23;20177;-94
2022/02/14 16:38:59;;;;;;;6.75;1.25;;;10.90;99.90;;;;;;5167948;23;20199;-95
2022/02/14 16:41:00;;;;;;;17.52;1.92;;;10.80;99.90;;;;;;5142911;23;20578;-94
2022/02/14 16:43:01;;;;;;;14.75;1.88;;;10.80;99.90;;;;;;5142866;23;20207;-94
2022/02/14 16:45:03;;;;;;;9.52;1.80;;;10.70;99.90;;;;;;5193236;22;20201;-95
2022/02/14 16:47:07;;;;;;;11.23;1.80;;;10.70;99.90;;;;;;5168960;22;20143;-96
2022/02/14 16:49:09;;;;;;;8.90;1.60;;;10.70;99.90;;;;;;5168544;23;20147;-94
2022/02/14 16:51:17;;;;;;;11.32;1.55;;;10.60;99.90;;;;;;5167857;23;20571;-94
2022/02/14 17:45:00;;;;;;;14.13;1.98;;;9.40;99.90;;;;;;5145499;22;20215;-92
2022/02/14 17:47:01;;;;;;;9.32;2.33;;;9.60;99.90;;;;;;5143980;23;20148;-93
2022/02/14 17:49:03;;;;;;;8.05;1.48;;;9.70;99.90;;;;;;5144053;23;20182;-94
2022/02/14 17:51:04;;;;;;;10.38;1.83;;;9.60;99.90;;;;;;5144238;23;20882;-93
2022/02/14 20:21:49;;;;;;;8.00;1.13;;;8.40;99.90;;;;;;5152156;22;20214;-95
2022/02/14 20:37:33;;;;;;;7.40;1.90;;;8.60;99.90;;;;;;5178043;23;20276;-95
2022/02/14 20:40:06;;;;;;;;;;;;;;;;;;;;;
2022/02/14 20:52:07;;;;;;;;;;;;;;;;;;;;;
2022/02/14 20:54:17;;;;;;;5.77;1.47;;;8.30;99.90;;;;;;5004313;23;20189;-95
2022/02/14 20:56:48;;;;;;;8.53;1.60;;;8.30;99.90;;;;;;5051748;23;20145;-96
2022/02/14 20:59:09;;;;;;;7.17;1.83;;;8.30;99.90;;;;;;5075353;23;20158;-94
2022/02/14 21:04:07;;;;;;;7.83;1.90;;;7.90;99.90;;;;;;5059379;23;20175;-95
2022/02/14 21:06:52;;;;;;;10.43;2.03;;;7.80;99.90;;;;;;5129282;23;20228;-95
2022/02/14 21:08:56;;;;;;;8.73;1.93;;;7.70;99.90;;;;;;5154264;23;20182;-94
2022/02/14 21:14:09;;;;;;;12.97;1.93;;;7.90;99.90;;;;;;5143601;22;20537;-95
2022/02/14 21:16:22;;;;;;;11.17;2.43;;;7.90;99.90;;;;;;5156616;23;20159;-95